createdAt,value
2022-12-13T00:02:01.196Z,99744.98
2022-12-13T00:04:30.016Z,99746.48
2022-12-13T00:06:58.568Z,99747.11
2022-12-13T00:09:27.223Z,99741.45
2022-12-13T00:11:55.830Z,99741.63
2022-12-13T00:14:24.348Z,99739.41
2022-12-13T00:16:52.954Z,99736.67
2022-12-13T00:19:21.502Z,99740.60
2022-12-13T00:21:50.094Z,99741.29
2022-12-13T00:24:18.699Z,99738.38
2022-12-13T00:26:47.254Z,99738.91
2022-12-13T00:29:15.846Z,99739.09
2022-12-13T00:31:59.303Z,99741.31
2022-12-13T00:34:30.249Z,99738.54
2022-12-13T00:36:59.382Z,99741.64
2022-12-13T00:39:28.749Z,99739.23
2022-12-13T00:41:58.049Z,99739.45
2022-12-13T00:44:26.957Z,99745.46
2022-12-13T00:46:56.616Z,99750.82
2022-12-13T00:49:25.269Z,99748.77
2022-12-13T00:51:53.906Z,99750.48
2022-12-13T00:54:22.549Z,99753.38
2022-12-13T00:56:51.656Z,99754.75
2022-12-13T00:59:20.381Z,99761.60
2022-12-13T01:01:49.081Z,99763.48
2022-12-13T01:04:17.722Z,99765.02
2022-12-13T01:06:50.064Z,99763.98
2022-12-13T01:09:31.060Z,99761.09
2022-12-13T01:12:02.626Z,99762.77
2022-12-13T01:14:32.213Z,99757.45
2022-12-13T01:17:00.904Z,99760.21
2022-12-13T01:19:29.626Z,99755.77
2022-12-13T01:22:01.260Z,99755.45
2022-12-13T01:24:31.592Z,99754.79
2022-12-13T01:27:00.573Z,99756.17
2022-12-13T01:29:29.345Z,99758.58
2022-12-13T01:31:57.872Z,99758.80
2022-12-13T01:34:27.733Z,99757.11
2022-12-13T01:36:58.199Z,99751.52
2022-12-13T01:39:28.087Z,99754.64
2022-12-13T01:42:00.241Z,99758.08
2022-12-13T01:44:57.249Z,99758.77
2022-12-13T01:47:43.861Z,99756.74
2022-12-13T01:50:21.194Z,99756.62
2022-12-13T01:52:50.496Z,99755.48
2022-12-13T01:55:22.594Z,99757.56
2022-12-13T01:57:53.759Z,99764.74
2022-12-13T02:00:22.465Z,99768.17
2022-12-13T02:02:51.530Z,99769.73
2022-12-13T02:05:24.625Z,99770.24
2022-12-13T02:07:53.723Z,99768.38
2022-12-13T02:10:22.389Z,99769.23
2022-12-13T02:12:51.219Z,99769.56
2022-12-13T02:15:20.969Z,99769.90
2022-12-13T02:18:27.366Z,99771.10
2022-12-13T02:21:28.866Z,99769.05
2022-12-13T02:24:12.405Z,99772.13
2022-12-13T02:27:17.002Z,99769.08
2022-12-13T02:30:01.993Z,99774.63
2022-12-13T02:33:09.045Z,99771.77
2022-12-13T02:36:07.486Z,99773.70
2022-12-13T02:38:49.225Z,99773.22
2022-12-13T02:41:29.846Z,99768.97
2022-12-13T02:44:22.731Z,99768.27
2022-12-13T02:47:05.854Z,99767.79
2022-12-13T02:49:48.361Z,99765.98
2022-12-13T02:52:22.662Z,99770.98
2022-12-13T02:54:53.760Z,99770.70
2022-12-13T02:57:38.834Z,99773.83
2022-12-13T03:00:12.515Z,99777.33
2022-12-13T03:02:56.947Z,99773.29
2022-12-13T03:06:04.296Z,99772.14
2022-12-13T03:09:10.602Z,99775.94
2022-12-13T03:12:32.467Z,99775.17
2022-12-13T03:15:18.058Z,99778.70
2022-12-13T03:18:17.839Z,99781.17
2022-12-13T03:20:57.090Z,99778.88
2022-12-13T03:23:27.327Z,99782.55
2022-12-13T03:26:01.677Z,99781.09
2022-12-13T03:28:30.233Z,99781.34
2022-12-13T03:30:58.894Z,99783.98
2022-12-13T03:33:27.631Z,99782.36
2022-12-13T03:35:56.674Z,99787.05
2022-12-13T03:38:25.932Z,99785.92
2022-12-13T03:41:01.100Z,99783.66
2022-12-13T03:43:30.041Z,99781.20
2022-12-13T03:45:58.649Z,99786.94
2022-12-13T03:48:27.639Z,99787.58
2022-12-13T03:50:56.963Z,99789.76
2022-12-13T03:53:33.374Z,99789.53
2022-12-13T03:56:06.417Z,99790.86
2022-12-13T03:58:38.117Z,99786.09
2022-12-13T04:01:17.052Z,99785.59
2022-12-13T04:03:47.450Z,99787.61
2022-12-13T04:06:21.733Z,99787.11
2022-12-13T04:08:53.045Z,99791.52
2022-12-13T04:11:43.106Z,99792.35
2022-12-13T04:14:12.372Z,99795.25
2022-12-13T04:16:52.492Z,99795.81
2022-12-13T04:19:23.126Z,99798.20
2022-12-13T04:21:54.427Z,99798.05
2022-12-13T04:24:31.630Z,99799.77
2022-12-13T04:27:02.019Z,99801.10
2022-12-13T04:29:33.895Z,99800.20
2022-12-13T04:32:26.101Z,99799.98
2022-12-13T04:35:01.338Z,99801.48
2022-12-13T04:37:43.448Z,99797.34
2022-12-13T04:40:12.584Z,99796.73
2022-12-13T04:42:41.137Z,99804.46
2022-12-13T04:45:15.965Z,99808.24
2022-12-13T04:47:44.965Z,99803.11
2022-12-13T04:50:13.499Z,99800.23
2022-12-13T04:52:42.141Z,99801.06
2022-12-13T04:55:10.985Z,99801.38
2022-12-13T04:57:40.341Z,99802.54
2022-12-13T05:00:13.381Z,99803.52
2022-12-13T05:02:42.461Z,99801.95
2022-12-13T05:05:11.984Z,99800.15
2022-12-13T05:07:42.094Z,99800.75
2022-12-13T05:10:12.056Z,99796.20
2022-12-13T05:12:40.582Z,99792.66
2022-12-13T05:15:09.484Z,99794.09
2022-12-13T05:17:38.025Z,99789.04
2022-12-13T05:20:07.048Z,99796.09
2022-12-13T05:22:35.777Z,99793.66
2022-12-13T05:25:06.957Z,99791.99
2022-12-13T05:27:35.498Z,99795.48
2022-12-13T05:30:05.417Z,99791.30
2022-12-13T05:32:44.120Z,99791.89
2022-12-13T05:35:21.774Z,99789.59
2022-12-13T05:37:53.548Z,99791.55
2022-12-13T05:40:29.119Z,99792.70
2022-12-13T05:43:01.169Z,99791.95
2022-12-13T05:45:32.592Z,99794.09
2022-12-13T05:48:01.954Z,99795.02
2022-12-13T05:50:30.777Z,99799.69
2022-12-13T05:52:59.285Z,99799.27
2022-12-13T05:55:27.822Z,99801.39
2022-12-13T05:58:02.513Z,99803.69
2022-12-13T06:00:31.498Z,99805.80
2022-12-13T06:03:01.890Z,99805.58
2022-12-13T06:05:31.513Z,99804.14
2022-12-13T06:08:00.708Z,99807.78
2022-12-13T06:10:34.940Z,99803.45
2022-12-13T06:13:21.776Z,99807.29
2022-12-13T06:16:01.304Z,99807.70
2022-12-13T06:18:33.216Z,99809.02
2022-12-13T06:21:07.244Z,99812.86
2022-12-13T06:23:36.449Z,99809.71
2022-12-13T06:26:07.329Z,99804.83
2022-12-13T06:28:36.138Z,99801.48
2022-12-13T06:31:05.446Z,99802.73
2022-12-13T06:33:38.446Z,99806.92
2022-12-13T06:36:07.836Z,99811.29
2022-12-13T06:38:43.373Z,99817.17
2022-12-13T06:41:16.756Z,99818.27
2022-12-13T06:43:46.874Z,99821.42
2022-12-13T06:46:16.100Z,99820.55
2022-12-13T06:48:45.126Z,99821.54
2022-12-13T06:51:22.959Z,99821.69
2022-12-13T06:53:51.806Z,99825.27
2022-12-13T06:57:40.753Z,99824.00
2022-12-13T07:00:12.515Z,99831.59
2022-12-13T07:02:41.122Z,99833.64
2022-12-13T07:05:10.930Z,99836.88
2022-12-13T07:07:39.564Z,99837.54
2022-12-13T07:10:12.646Z,99835.33
2022-12-13T07:12:50.836Z,99836.86
2022-12-13T07:15:19.376Z,99840.42
2022-12-13T07:17:52.377Z,99841.83
2022-12-13T07:20:22.773Z,99841.46
2022-12-13T07:22:58.843Z,99850.05
2022-12-13T07:25:29.720Z,99852.32
2022-12-13T07:28:02.947Z,99852.86
2022-12-13T07:30:41.148Z,99853.71
2022-12-13T07:33:11.542Z,99851.39
2022-12-13T07:35:41.348Z,99848.75
2022-12-13T07:38:11.829Z,99855.46
2022-12-13T07:40:41.555Z,99856.73
2022-12-13T07:43:10.249Z,99854.41
2022-12-13T07:45:38.817Z,99855.61
2022-12-13T07:48:08.878Z,99852.20
2022-12-13T07:50:38.085Z,99856.73
2022-12-13T07:53:08.557Z,99858.50
2022-12-13T07:55:38.326Z,99857.77
2022-12-13T07:58:15.724Z,99859.46
2022-12-13T08:00:46.925Z,99861.40
2022-12-13T08:03:25.571Z,99861.70
2022-12-13T08:06:08.780Z,99861.36
2022-12-13T08:08:38.466Z,99859.73
2022-12-13T08:11:11.247Z,99862.23
2022-12-13T08:13:41.124Z,99860.67
2022-12-13T08:16:27.506Z,99859.71
2022-12-13T08:19:02.658Z,99855.51
2022-12-13T08:21:58.325Z,99862.41
2022-12-13T08:24:31.057Z,99859.60
2022-12-13T08:27:03.081Z,99865.47
2022-12-13T08:29:36.773Z,99866.33
2022-12-13T08:32:10.588Z,99863.73
2022-12-13T08:34:41.608Z,99865.96
2022-12-13T08:37:10.207Z,99866.39
2022-12-13T08:39:39.975Z,99870.15
2022-12-13T08:42:15.885Z,99867.76
2022-12-13T08:44:50.890Z,99870.49
2022-12-13T08:47:25.231Z,99873.45
2022-12-13T08:50:01.360Z,99872.84
2022-12-13T08:52:40.705Z,99869.02
2022-12-13T08:55:15.513Z,99867.27
2022-12-13T08:57:45.373Z,99870.77
2022-12-13T09:00:18.339Z,99874.88
2022-12-13T09:02:47.188Z,99877.69
2022-12-13T09:05:33.517Z,99882.77
2022-12-13T09:08:23.018Z,99882.00
2022-12-13T09:11:01.311Z,99885.10
2022-12-13T09:13:43.400Z,99886.20
2022-12-13T09:16:25.845Z,99887.45
2022-12-13T09:18:55.223Z,99886.33
2022-12-13T09:21:30.975Z,99892.17
2022-12-13T09:24:02.176Z,99891.45
2022-12-13T09:26:38.470Z,99890.32
2022-12-13T09:29:10.331Z,99891.22
2022-12-13T09:31:40.991Z,99888.73
2022-12-13T09:34:11.573Z,99891.04
2022-12-13T09:36:40.301Z,99890.10
2022-12-13T09:39:11.952Z,99890.11
2022-12-13T09:41:53.134Z,99891.30
2022-12-13T09:45:02.236Z,99887.21
2022-12-13T09:47:39.317Z,99891.86
2022-12-13T09:50:37.658Z,99893.11
2022-12-13T09:53:12.067Z,99895.05
2022-12-13T09:55:52.516Z,99891.64
2022-12-13T09:58:28.051Z,99885.19
2022-12-13T10:00:57.792Z,99883.65
2022-12-13T10:03:27.468Z,99885.30
2022-12-13T10:06:02.307Z,99889.31
2022-12-13T10:08:37.424Z,99894.45
2022-12-13T10:11:06.446Z,99894.70
2022-12-13T10:14:01.424Z,99886.41
2022-12-13T10:16:37.238Z,99882.98
2022-12-13T10:19:35.375Z,99888.86
2022-12-13T10:22:09.541Z,99889.27
2022-12-13T10:24:48.902Z,99885.87
2022-12-13T10:27:33.608Z,99881.59
2022-12-13T10:30:28.561Z,99883.88
2022-12-13T10:33:04.876Z,99878.48
2022-12-13T10:35:41.717Z,99880.00
2022-12-13T10:38:16.769Z,99881.54
2022-12-13T10:40:46.770Z,99886.86
2022-12-13T10:43:15.384Z,99891.02
2022-12-13T10:45:59.573Z,99887.83
2022-12-13T10:48:50.737Z,99888.92
2022-12-13T10:51:23.024Z,99881.61
2022-12-13T10:54:00.773Z,99877.17
2022-12-13T10:56:51.501Z,99876.46
2022-12-13T10:59:31.202Z,99874.11
2022-12-13T11:02:01.876Z,99876.02
2022-12-13T11:04:35.294Z,99877.77
2022-12-13T11:07:32.431Z,99870.68
2022-12-13T11:10:27.593Z,99862.17
2022-12-13T11:13:06.459Z,99859.98
2022-12-13T11:15:38.725Z,99865.38
2022-12-13T11:18:23.609Z,99860.33
2022-12-13T11:21:02.865Z,99858.77
2022-12-13T11:23:45.927Z,99861.78
2022-12-13T11:26:24.743Z,99857.63
2022-12-13T11:29:15.955Z,99857.52
2022-12-13T11:32:05.912Z,99854.22
2022-12-13T11:35:09.396Z,99853.95
2022-12-13T11:38:02.537Z,99853.02
2022-12-13T11:40:40.140Z,99853.52
2022-12-13T11:43:36.430Z,99855.09
2022-12-13T11:46:22.431Z,99852.92
2022-12-13T11:49:01.499Z,99856.53
2022-12-13T11:52:06.012Z,99861.46
2022-12-13T11:54:46.493Z,99861.70
2022-12-13T11:57:45.261Z,99864.20
2022-12-13T12:00:59.674Z,99868.40
2022-12-13T12:03:45.733Z,99867.02
2022-12-13T12:06:29.751Z,99862.48
2022-12-13T12:09:09.896Z,99867.90
2022-12-13T12:12:00.243Z,99863.61
2022-12-13T12:14:50.023Z,99864.27
2022-12-13T12:17:25.668Z,99873.20
2022-12-13T12:19:57.654Z,99876.98
2022-12-13T12:22:44.684Z,99876.30
2022-12-13T12:25:36.383Z,99872.11
2022-12-13T12:28:31.782Z,99875.67
2022-12-13T12:31:17.143Z,99874.06
2022-12-13T12:34:43.302Z,99877.45
2022-12-13T12:38:04.813Z,99885.69
2022-12-13T12:41:24.849Z,99883.48
2022-12-13T12:44:17.324Z,99874.44
2022-12-13T12:50:27.366Z,99872.38
2022-12-13T12:53:34.246Z,99872.84
2022-12-13T12:56:34.406Z,99876.41
2022-12-13T12:59:42.856Z,99875.98
2022-12-13T13:02:25.955Z,99880.40
2022-12-13T13:05:09.679Z,99881.11
2022-12-13T13:07:51.373Z,99879.84
2022-12-13T13:10:26.341Z,99880.66
2022-12-13T13:13:12.445Z,99880.77
2022-12-13T13:15:41.777Z,99878.55
2022-12-13T13:18:49.484Z,99877.38
2022-12-13T13:21:23.817Z,99881.05
2022-12-13T13:24:01.473Z,99887.41
2022-12-13T13:26:45.311Z,99887.64
2022-12-13T13:29:33.358Z,99886.52
2022-12-13T13:32:11.403Z,99891.34
2022-12-13T13:34:48.475Z,99895.23
2022-12-13T13:37:26.123Z,99889.39
2022-12-13T13:39:59.324Z,99888.56
2022-12-13T13:42:32.940Z,99893.88
2022-12-13T13:45:22.768Z,99898.36
2022-12-13T13:48:49.467Z,99894.73
2022-12-13T13:56:00.121Z,99905.22
2022-12-13T13:58:51.418Z,99910.11
2022-12-13T14:02:01.027Z,99915.36
2022-12-13T14:05:26.851Z,99915.16
2022-12-13T14:08:20.303Z,99915.39
2022-12-13T14:11:07.892Z,99920.70
2022-12-13T14:14:00.846Z,99921.52
2022-12-13T14:17:00.413Z,99925.15
2022-12-13T14:20:24.658Z,99924.85
2022-12-13T14:23:27.045Z,99922.17
2022-12-13T14:26:32.510Z,99920.38
2022-12-13T14:29:10.601Z,99918.55
2022-12-13T14:31:49.813Z,99918.73
2022-12-13T14:34:33.120Z,99921.83
2022-12-13T14:37:20.530Z,99924.45
2022-12-13T14:39:49.349Z,99924.16
2022-12-13T14:42:33.903Z,99927.42
2022-12-13T14:45:37.026Z,99927.11
2022-12-13T14:48:16.229Z,99925.80
2022-12-13T14:50:58.073Z,99927.68
2022-12-13T14:53:39.400Z,99930.05
2022-12-13T14:56:28.863Z,99929.58
2022-12-13T14:59:12.424Z,99929.77
2022-12-13T15:01:41.497Z,99925.34
2022-12-13T15:04:26.945Z,99921.92
2022-12-13T15:07:09.486Z,99916.14
2022-12-13T15:09:43.107Z,99914.27
2022-12-13T15:12:23.872Z,99915.96
2022-12-13T15:15:02.767Z,99919.38
2022-12-13T15:17:38.958Z,99918.10
2022-12-13T15:20:31.953Z,99918.58
2022-12-13T15:23:15.057Z,99916.55
2022-12-13T15:25:44.558Z,99919.44
2022-12-13T15:28:18.130Z,99922.30
2022-12-13T15:30:51.019Z,99927.39
2022-12-13T15:33:30.490Z,99928.67
2022-12-13T15:36:16.993Z,99934.27
2022-12-13T15:38:57.509Z,99931.91
2022-12-13T15:41:31.073Z,99932.99
2022-12-13T15:44:17.257Z,99933.88
2022-12-13T15:46:50.292Z,99929.09
2022-12-13T15:49:38.453Z,99928.70
2022-12-13T15:52:19.927Z,99929.63
2022-12-13T15:55:12.839Z,99929.33
2022-12-13T15:57:57.520Z,99932.48
2022-12-13T16:00:34.761Z,99931.13
2022-12-13T16:03:16.288Z,99932.31
2022-12-13T16:20:07.640Z,99937.90
2022-12-13T16:22:37.862Z,99942.17
2022-12-13T16:25:06.826Z,99940.61
2022-12-13T16:27:37.624Z,99937.55
2022-12-13T16:30:22.680Z,99939.79
2022-12-13T16:35:40.483Z,99942.36
2022-12-13T16:38:12.128Z,99944.07
2022-12-13T16:41:08.230Z,99945.64
2022-12-13T16:43:58.612Z,99950.65
2022-12-13T16:47:14.235Z,99952.59
2022-12-13T16:49:28.772Z,99953.98
2022-12-13T16:51:57.617Z,99953.84
2022-12-13T16:54:26.519Z,99954.38
2022-12-13T16:56:55.200Z,99952.71
2022-12-13T16:59:26.272Z,99952.96
2022-12-13T17:01:55.288Z,99953.23
2022-12-13T17:04:24.909Z,99955.59
2022-12-13T17:06:54.745Z,99958.94
2022-12-13T17:09:25.293Z,99957.80
2022-12-13T17:11:54.006Z,99962.61
2022-12-13T17:14:22.719Z,99964.06
2022-12-13T17:16:51.354Z,99967.39
2022-12-13T17:19:20.108Z,99968.17
2022-12-13T17:21:48.697Z,99966.90
2022-12-13T17:33:17.524Z,99964.93
2022-12-13T17:35:47.368Z,99959.88
2022-12-13T17:38:16.185Z,99963.11
2022-12-13T17:40:47.550Z,99967.84
2022-12-13T17:43:33.060Z,99965.79
2022-12-13T17:46:07.447Z,99968.66
2022-12-13T17:48:40.673Z,99966.48
2022-12-13T17:51:11.831Z,99966.18
2022-12-13T17:53:43.068Z,99965.73
2022-12-13T17:56:16.026Z,99971.73
2022-12-13T17:58:45.229Z,99973.79
2022-12-13T18:01:17.437Z,99975.85
2022-12-13T18:03:47.975Z,99970.61
2022-12-13T18:06:16.903Z,99972.29
2022-12-13T18:08:46.897Z,99970.59
2022-12-13T18:11:34.895Z,99971.09
2022-12-13T18:14:06.559Z,99976.34
2022-12-13T18:16:38.650Z,99981.07
2022-12-13T18:19:12.002Z,99987.00
2022-12-13T18:21:43.235Z,99984.45
2022-12-13T18:24:12.507Z,99982.92
2022-12-13T18:26:41.217Z,99980.56
2022-12-13T18:29:09.914Z,99988.89
2022-12-13T18:31:38.594Z,99990.59
2022-12-13T18:34:08.500Z,99992.14
2022-12-13T18:36:37.527Z,99993.83
2022-12-13T18:39:07.047Z,99994.35
2022-12-13T18:41:35.610Z,99990.64
2022-12-13T18:44:10.386Z,99995.21
2022-12-13T18:46:42.223Z,99988.76
2022-12-13T18:49:13.544Z,99991.45
2022-12-13T18:51:42.171Z,99988.40
2022-12-13T18:54:10.831Z,99989.92
2022-12-13T18:56:39.440Z,99990.08
2022-12-13T18:59:08.277Z,99990.23
2022-12-13T19:01:36.846Z,99990.40
2022-12-13T19:04:05.632Z,99987.00
2022-12-13T19:06:34.408Z,99985.12
2022-12-13T19:09:03.165Z,99986.63
2022-12-13T19:11:31.753Z,99981.02
2022-12-13T19:14:00.353Z,99981.16
2022-12-13T19:16:29.069Z,99984.17
2022-12-13T19:18:58.214Z,99988.21
2022-12-13T19:21:27.584Z,99988.72
2022-12-13T19:23:58.331Z,99990.41
2022-12-13T19:26:29.226Z,99989.38
2022-12-13T19:28:59.388Z,99985.30
2022-12-13T19:31:32.120Z,99985.12
2022-12-13T19:34:03.742Z,99984.93
2022-12-13T19:36:32.938Z,99982.20
2022-12-13T19:39:01.672Z,99986.26
2022-12-13T19:41:32.425Z,99981.67
2022-12-13T19:44:04.809Z,99978.63
2022-12-13T19:46:34.023Z,99976.77
2022-12-13T19:49:02.794Z,99973.71
2022-12-13T19:51:37.530Z,99973.03
2022-12-13T19:54:08.061Z,99971.52
2022-12-13T19:56:36.835Z,99974.41
2022-12-13T19:59:05.440Z,99975.10
2022-12-13T20:01:34.191Z,99976.80
2022-12-13T20:04:02.797Z,99978.18
2022-12-13T20:06:31.393Z,99979.36
2022-12-13T20:08:59.908Z,99979.70
2022-12-13T20:11:28.507Z,99984.28
2022-12-13T20:13:57.444Z,99991.40
2022-12-13T20:16:27.404Z,99991.40
2022-12-13T20:18:58.883Z,99989.70
2022-12-13T20:21:29.523Z,99995.13
2022-12-13T20:23:58.419Z,99994.78
2022-12-13T20:26:31.918Z,99995.79
2022-12-13T20:29:00.659Z,99996.80
2022-12-13T20:31:35.180Z,99995.80
2022-12-13T20:34:10.071Z,99997.83
2022-12-13T20:36:38.775Z,99998.17
2022-12-13T20:39:08.564Z,99993.09
2022-12-13T20:41:37.639Z,99989.70
2022-12-13T20:44:08.950Z,99994.27
2022-12-13T20:46:37.948Z,99991.55
2022-12-13T20:49:09.392Z,99988.48
2022-12-13T20:51:41.488Z,99989.95
2022-12-13T20:54:10.632Z,99987.54
2022-12-13T20:56:39.989Z,99991.88
2022-12-13T20:59:12.940Z,99991.30
2022-12-13T21:01:44.008Z,99986.64
2022-12-13T21:04:20.043Z,99985.23
2022-12-13T21:06:48.740Z,99980.11
2022-12-13T21:09:18.206Z,99980.42
2022-12-13T21:11:48.960Z,99981.93
2022-12-13T21:14:25.316Z,99978.37
2022-12-13T21:17:00.227Z,99981.76
2022-12-13T21:19:39.092Z,99979.91
2022-12-13T21:22:08.785Z,99981.83
2022-12-13T21:24:37.290Z,99984.91
2022-12-13T21:27:05.857Z,99983.41
2022-12-13T21:29:34.400Z,99982.77
2022-12-13T21:32:03.210Z,99984.50
2022-12-13T21:34:33.087Z,99980.29
2022-12-13T21:37:01.598Z,99980.13
2022-12-13T21:39:31.075Z,99979.48
2022-12-13T21:41:59.625Z,99980.85
2022-12-13T21:44:28.560Z,99978.67
2022-12-13T21:47:13.431Z,99978.86
2022-12-13T21:49:48.540Z,99974.65
2022-12-13T21:52:17.795Z,99973.48
2022-12-13T21:54:46.461Z,99970.46
2022-12-13T21:57:33.673Z,99968.46
2022-12-13T22:00:02.476Z,99969.17
2022-12-13T22:02:31.371Z,99968.86
2022-12-13T22:05:00.049Z,99973.98
2022-12-13T22:07:33.797Z,99974.02
2022-12-13T22:10:02.862Z,99974.59
2022-12-13T22:12:38.531Z,99970.04
2022-12-13T22:15:13.741Z,99971.91
2022-12-13T22:17:43.229Z,99972.45
2022-12-13T22:20:15.497Z,99973.66
2022-12-13T22:22:45.575Z,99974.54
2022-12-13T22:25:14.250Z,99974.74
2022-12-13T22:27:43.231Z,99972.92
2022-12-13T22:30:12.102Z,99973.13
2022-12-13T22:32:40.665Z,99966.43
2022-12-13T22:35:09.441Z,99958.15
2022-12-13T22:37:39.668Z,99954.95
2022-12-13T22:40:09.287Z,99948.21
2022-12-13T22:42:37.903Z,99952.45
2022-12-13T22:45:07.266Z,99951.80
2022-12-13T22:47:35.779Z,99957.56
2022-12-13T22:50:04.787Z,99952.84
2022-12-13T22:52:34.158Z,99954.20
2022-12-13T22:55:02.937Z,99950.52
2022-12-13T22:57:31.458Z,99946.64
2022-12-13T23:00:00.002Z,99941.58
2022-12-13T23:02:28.630Z,99938.02
2022-12-13T23:04:57.236Z,99931.77
2022-12-13T23:07:25.710Z,99932.27
2022-12-13T23:09:54.267Z,99928.23
2022-12-13T23:12:41.496Z,99927.72
2022-12-13T23:15:10.515Z,99926.89
2022-12-13T23:17:39.069Z,99921.30
2022-12-13T23:20:08.865Z,99917.76
2022-12-13T23:22:37.406Z,99916.91
2022-12-13T23:25:06.631Z,99913.87
2022-12-13T23:27:35.223Z,99910.66
2022-12-13T23:30:04.329Z,99906.95
2022-12-13T23:32:32.878Z,99902.89
2022-12-13T23:35:01.374Z,99899.69
2022-12-13T23:37:29.975Z,99894.96
2022-12-13T23:39:58.644Z,99889.21
2022-12-13T23:42:30.339Z,99887.52
2022-12-13T23:44:58.843Z,99884.48
2022-12-13T23:47:27.366Z,99885.33
2022-12-13T23:49:55.875Z,99886.52
2022-12-13T23:52:24.391Z,99885.84
2022-12-13T23:54:52.943Z,99888.89
2022-12-13T23:57:21.455Z,99885.50
2022-12-13T23:59:49.950Z,99879.59
